M I D A S
Marine Information and Data Acquisition System
Tripno 1034 of the Zeeleeuw from 2006-02-22 07:44:26 to 2006-02-22 12:53:22
Back to CruiseResearch ActivitiesStationsMapUnderway DataData graphs

EquipmentUnitsComment
TimeDGPSUTC
LatitudeDGPSDM.mWGS84
LongitudeDGPSDM.mWGS84
HeadingGyrodeg 
SOGDGPSknotsSpeed over ground
COGDGPSdegCourse over ground
DepthEcho soundermeters200 kHz
Missing or incorrect values are displayed as -999
Navigation data collected by the RV Zeeleeuw from 2006-02-22 07:27:39 to 2006-02-22 13:15:29
                                                                                    Next 1000 lines
Time Latitude Longitude Heading SOG COG Depth
2006-02-22 07:27:49 51°13.599 2°56.091 114.8 0.8 293 7.5
2006-02-22 07:27:55 51°13.599 2°56.088 114.8 1.1 292 7.6
2006-02-22 07:27:59 51°13.6 2°56.085 114.9 1.5 294 8.1
2006-02-22 07:28:05 51°13.601 2°56.081 115.3 1.7 292 8.4
2006-02-22 07:28:10 51°13.603 2°56.077 115.7 2 294 -999
2006-02-22 07:28:15 51°13.604 2°56.072 116.5 2.3 293 -999
2006-02-22 07:28:20 51°13.605 2°56.067 116.8 2.5 295 -999
2006-02-22 07:28:24 51°13.607 2°56.063 116.9 2.7 293 -999
2006-02-22 07:28:30 51°13.608 2°56.055 116.9 2.9 295 -999
2006-02-22 07:28:35 51°13.61 2°56.049 117 3.2 294 -999
2006-02-22 07:28:40 51°13.612 2°56.043 117.3 3.3 295 -999
2006-02-22 07:28:46 51°13.615 2°56.034 117.5 3.5 294 -999
2006-02-22 07:28:50 51°13.616 2°56.028 117.6 3.7 295 -999
2006-02-22 07:28:55 51°13.619 2°56.02 117.9 3.9 294 -999
2006-02-22 07:29:00 51°13.621 2°56.012 118.3 4.1 295 -999
2006-02-22 07:29:05 51°13.624 2°56.003 118.9 4.3 295 -999
2006-02-22 07:29:10 51°13.626 2°55.995 119.6 4.4 296 -999
2006-02-22 07:29:16 51°13.63 2°55.984 120.4 4.6 297 -999
2006-02-22 07:29:20 51°13.632 2°55.976 121.3 4.6 297 -999
2006-02-22 07:29:25 51°13.635 2°55.967 122 4.8 299 -999
2006-02-22 07:29:30 51°13.639 2°55.958 122.5 4.8 298 -999
2006-02-22 07:29:35 51°13.642 2°55.948 122.8 4.9 299 -999
2006-02-22 07:29:40 51°13.645 2°55.938 123.1 5 299 -999
2006-02-22 07:29:45 51°13.649 2°55.929 123.3 5.1 300 -999
2006-02-22 07:29:50 51°13.652 2°55.919 123.6 5.1 300 -999
2006-02-22 07:29:56 51°13.657 2°55.907 123.9 5.2 301 -999
2006-02-22 07:30:00 51°13.66 2°55.899 123.9 5.2 300 -999
2006-02-22 07:30:05 51°13.664 2°55.889 124 5.3 301 -999
2006-02-22 07:30:10 51°13.668 2°55.879 124 5.3 301 -999
2006-02-22 07:30:15 51°13.671 2°55.869 124.1 5.4 301 -999
2006-02-22 07:30:20 51°13.675 2°55.858 124 5.4 301 -999
2006-02-22 07:30:26 51°13.68 2°55.846 123.9 5.4 301 -999
2006-02-22 07:30:30 51°13.683 2°55.838 123.7 5.4 301 -999
2006-02-22 07:30:35 51°13.687 2°55.827 123.6 5.4 301 -999
2006-02-22 07:30:40 51°13.691 2°55.817 123.3 5.4 301 -999
2006-02-22 07:30:46 51°13.695 2°55.805 122.6 5.4 300 -999
2006-02-22 07:30:50 51°13.698 2°55.797 121.5 5.4 299 -999
2006-02-22 07:30:55 51°13.702 2°55.786 119.9 5.4 298 -999
2006-02-22 07:31:00 51°13.705 2°55.776 118.1 5.1 296 -999
2006-02-22 07:31:06 51°13.708 2°55.765 116.1 4.7 294 -999
2006-02-22 07:31:10 51°13.71 2°55.757 114.3 4.6 293 -999
2006-02-22 07:31:15 51°13.712 2°55.749 112.5 4.2 291 -999
2006-02-22 07:31:20 51°13.714 2°55.74 110.9 4.1 290 -999
2006-02-22 07:31:25 51°13.715 2°55.732 109.9 3.9 288 4.9
2006-02-22 07:31:30 51°13.717 2°55.725 108.9 3.6 287 4.8
2006-02-22 07:31:35 51°13.718 2°55.719 108.1 3.4 287 -999
2006-02-22 07:31:40 51°13.719 2°55.715 107.4 2.2 285 5
2006-02-22 07:31:44 51°13.719 2°55.713 105.2 1.3 290 4.8
2006-02-22 07:31:50 51°13.72 2°55.713 102.2 1.3 290 4.7
2006-02-22 07:31:55 51°13.72 2°55.715 96.3 0.7 60 4.8
2006-02-22 07:32:00 51°13.721 2°55.719 89.2 1.4 71 4.8
2006-02-22 07:32:05 51°13.722 2°55.722 80.4 1.7 62 4.8
2006-02-22 07:32:10 51°13.723 2°55.725 74.6 1.4 61 4.8
2006-02-22 07:32:15 51°13.723 2°55.726 70.9 0.8 55 6.4
2006-02-22 07:32:20 51°13.723 2°55.726 67.9 0.5 44 5.7
2006-02-22 07:32:25 51°13.723 2°55.724 64.8 0.4 262 4.8
2006-02-22 07:32:30 51°13.723 2°55.722 62.1 0.8 248 4.7
2006-02-22 07:32:35 51°13.722 2°55.72 59.5 1.4 242 -999
2006-02-22 07:32:40 51°13.721 2°55.716 57.4 1.7 240 -999
2006-02-22 07:32:44 51°13.719 2°55.714 55.7 1.7 239 6.4
2006-02-22 07:32:50 51°13.718 2°55.71 54.4 1.6 239 -999
2006-02-22 07:32:55 51°13.717 2°55.707 53.7 1.2 242 -999
2006-02-22 07:33:00 51°13.717 2°55.706 51.7 1 242 -999
2006-02-22 07:33:06 51°13.717 2°55.704 48.9 0.6 253 -999
2006-02-22 07:33:10 51°13.717 2°55.704 45.5 0.4 258 -999
2006-02-22 07:33:15 51°13.717 2°55.703 41.3 0.5 342 -999
2006-02-22 07:33:20 51°13.718 2°55.704 36.6 0.6 4 -999
2006-02-22 07:33:24 51°13.719 2°55.704 31.5 0.9 6 -999
2006-02-22 07:33:30 51°13.722 2°55.704 26.1 1.3 7 -999
2006-02-22 07:33:35 51°13.724 2°55.704 20.1 1.6 2 -999
2006-02-22 07:33:40 51°13.726 2°55.704 13.7 1.8 359 -999
2006-02-22 07:33:44 51°13.729 2°55.704 6.8 2 353 4.9
2006-02-22 07:33:50 51°13.733 2°55.702 -999 2.3 349 4.9
2006-02-22 07:33:55 51°13.736 2°55.7 354.4 2.7 342 4.8
2006-02-22 07:34:00 51°13.74 2°55.697 349.5 3 340 4.8
2006-02-22 07:34:05 51°13.745 2°55.694 344.8 3.6 337 -999
2006-02-22 07:34:10 51°13.75 2°55.69 342.8 4 336 -999
2006-02-22 07:34:15 51°13.756 2°55.686 342.2 4.5 336 -999
2006-02-22 07:34:20 51°13.762 2°55.682 341.8 4.8 336 -999
2006-02-22 07:34:24 51°13.767 2°55.678 341.1 5.2 335 -999
2006-02-22 07:34:30 51°13.775 2°55.671 340.8 5.3 335 -999
2006-02-22 07:34:36 51°13.784 2°55.665 340.8 5.7 335 -999
2006-02-22 07:34:40 51°13.79 2°55.661 340.7 6 335 -999
2006-02-22 07:34:45 51°13.798 2°55.655 340.6 6.1 336 -999
2006-02-22 07:34:50 51°13.806 2°55.65 340.6 6.4 336 -999
2006-02-22 07:34:55 51°13.815 2°55.644 340.6 6.6 336 -999
2006-02-22 07:35:00 51°13.823 2°55.638 340.4 6.8 336 -999
2006-02-22 07:35:05 51°13.832 2°55.631 339.5 7 335 -999
2006-02-22 07:35:10 51°13.841 2°55.624 339.3 7.1 335 -999
2006-02-22 07:35:15 51°13.85 2°55.618 339.8 7.2 335 -999
2006-02-22 07:35:20 51°13.86 2°55.611 339.7 7.3 335 10.4
2006-02-22 07:35:25 51°13.869 2°55.603 339.3 7.5 334 10.4
2006-02-22 07:35:30 51°13.878 2°55.596 339.2 7.5 334 -999
2006-02-22 07:35:35 51°13.888 2°55.588 339.2 7.7 334 -999
2006-02-22 07:35:40 51°13.898 2°55.581 338.6 7.8 333 10.4
2006-02-22 07:35:46 51°13.909 2°55.572 338.4 7.8 333 -999
2006-02-22 07:35:50 51°13.917 2°55.565 338.9 7.9 334 -999
2006-02-22 07:35:55 51°13.927 2°55.558 339 7.9 334 -999
2006-02-22 07:36:00 51°13.937 2°55.55 339.3 7.9 334 -999
2006-02-22 07:36:04 51°13.945 2°55.544 339.8 8 335 10.5
2006-02-22 07:36:10 51°13.957 2°55.535 340.3 8 335 10.5
2006-02-22 07:36:15 51°13.968 2°55.527 340.2 8.1 334 10.5
2006-02-22 07:36:20 51°13.978 2°55.52 340.3 8.2 335 10.6
2006-02-22 07:36:25 51°13.988 2°55.512 340.4 8.2 335 10.6
2006-02-22 07:36:30 51°13.999 2°55.505 340.6 8.2 335 10.6
2006-02-22 07:36:35 51°14.009 2°55.497 340.7 8.2 336 10.6
2006-02-22 07:36:40 51°14.019 2°55.49 341.1 8.2 336 10.6
2006-02-22 07:36:45 51°14.03 2°55.483 341.6 8.2 336 10.6
2006-02-22 07:36:50 51°14.04 2°55.476 342 8.1 337 10.6
2006-02-22 07:36:55 51°14.05 2°55.469 342.1 7.9 337 -999
2006-02-22 07:37:00 51°14.06 2°55.463 342.4 7.8 337 10.6
2006-02-22 07:37:05 51°14.07 2°55.456 342.5 7.7 337 10.6
2006-02-22 07:37:10 51°14.079 2°55.449 342.5 7.6 337 10.7
2006-02-22 07:37:15 51°14.089 2°55.443 342.4 7.6 337 10.6
2006-02-22 07:37:20 51°14.099 2°55.436 342.4 7.6 336 10.7
2006-02-22 07:37:24 51°14.107 2°55.43 342.1 7.8 336 -999
2006-02-22 07:37:30 51°14.119 2°55.422 342 7.9 336 10.6
2006-02-22 07:37:35 51°14.129 2°55.414 341.9 8 336 -999
2006-02-22 07:37:40 51°14.14 2°55.407 341.5 8.2 336 -999
2006-02-22 07:37:45 51°14.15 2°55.399 340.6 8.3 334 10.6
2006-02-22 07:37:50 51°14.16 2°55.391 339.6 8.4 334 -999
2006-02-22 07:37:55 51°14.171 2°55.382 338.2 8.5 331 -999
2006-02-22 07:38:00 51°14.181 2°55.372 336.8 8.5 330 -999
2006-02-22 07:38:05 51°14.191 2°55.362 334.6 8.5 327 10.7
2006-02-22 07:38:10 51°14.201 2°55.35 332.4 8.5 326 10.6
2006-02-22 07:38:15 51°14.211 2°55.339 330 8.6 322 -999
2006-02-22 07:38:20 51°14.22 2°55.327 328 8.7 322 -999
2006-02-22 07:38:25 51°14.229 2°55.314 325.9 8.8 320 -999
2006-02-22 07:38:30 51°14.238 2°55.301 323.5 8.8 317 -999
2006-02-22 07:38:36 51°14.248 2°55.284 320.8 8.8 317 -999
2006-02-22 07:38:40 51°14.254 2°55.272 318.3 8.8 312 -999
2006-02-22 07:38:44 51°14.261 2°55.26 316.4 9 310 -999
2006-02-22 07:38:50 51°14.271 2°55.241 315.6 9.1 310 -999
2006-02-22 07:38:55 51°14.279 2°55.226 315.4 9.3 310 10.6
2006-02-22 07:39:00 51°14.287 2°55.209 315 9.3 309 10.5
2006-02-22 07:39:04 51°14.293 2°55.196 314.7 9.3 309 10.5
2006-02-22 07:39:10 51°14.303 2°55.176 314.4 9.5 307 10.5
2006-02-22 07:39:15 51°14.311 2°55.159 313.7 9.5 307 10.4
2006-02-22 07:39:20 51°14.319 2°55.142 313.1 9.6 307 -999
2006-02-22 07:39:24 51°14.325 2°55.128 313 9.7 307 -999
2006-02-22 07:39:30 51°14.334 2°55.107 312.9 9.7 307 -999
2006-02-22 07:39:35 51°14.342 2°55.09 311.6 9.8 305 -999
2006-02-22 07:39:40 51°14.35 2°55.071 310.1 9.9 303 -999
2006-02-22 07:39:44 51°14.355 2°55.056 308.2 10 301 -999
2006-02-22 07:39:50 51°14.363 2°55.032 306.2 10 299 11.7
2006-02-22 07:39:55 51°14.369 2°55.011 303.3 10.3 297 10.7
2006-02-22 07:39:59 51°14.374 2°54.994 300.5 10.4 294 10.9
2006-02-22 07:40:04 51°14.379 2°54.973 297.8 10.6 291 10.9
2006-02-22 07:40:10 51°14.385 2°54.947 296.1 10.6 289 10.7
2006-02-22 07:40:15 51°14.389 2°54.924 293.9 10.6 287 11.2
2006-02-22 07:40:20 51°14.393 2°54.902 293.1 10.6 286 10.6
2006-02-22 07:40:25 51°14.396 2°54.879 290.5 10.6 286 10.6
2006-02-22 07:40:30 51°14.4 2°54.855 288.8 10.7 284 10.6
2006-02-22 07:40:35 51°14.402 2°54.833 287.7 10.6 281 10.6
2006-02-22 07:40:40 51°14.405 2°54.809 286.8 10.8 284 10.5
2006-02-22 07:40:44 51°14.409 2°54.79 285.9 10.8 284 10.8
2006-02-22 07:40:50 51°14.413 2°54.762 286.4 10.8 284 10.3
2006-02-22 07:40:55 51°14.418 2°54.739 287.8 11 283 10.5
2006-02-22 07:41:00 51°14.422 2°54.714 289.4 11.1 284 10.5
2006-02-22 07:41:05 51°14.426 2°54.691 290 11.1 284 10.8
2006-02-22 07:41:10 51°14.43 2°54.665 290.9 11.4 285 11.3
2006-02-22 07:41:15 51°14.435 2°54.641 290.1 11.5 287 11.2
2006-02-22 07:41:20 51°14.44 2°54.617 289.1 11.6 287 10.9
2006-02-22 07:41:24 51°14.443 2°54.597 289.7 11.7 284 11.3
2006-02-22 07:41:30 51°14.447 2°54.567 289 11.7 283 11.6
2006-02-22 07:41:35 51°14.45 2°54.542 287.4 11.7 283 10.9
2006-02-22 07:41:40 51°14.453 2°54.516 285.7 11.6 279 10.9
2006-02-22 07:41:44 51°14.454 2°54.496 283.8 11.6 278 -999
2006-02-22 07:41:50 51°14.456 2°54.465 281.3 11.6 276 11.3
2006-02-22 07:41:55 51°14.457 2°54.44 278.2 11.6 272 11.3
2006-02-22 07:42:00 51°14.456 2°54.414 275.4 11.6 272 11.3
2006-02-22 07:42:05 51°14.454 2°54.388 272.2 11.6 272 11.5
2006-02-22 07:42:10 51°14.452 2°54.363 269.6 11.6 262 11.4
2006-02-22 07:42:15 51°14.449 2°54.338 268.4 11.6 262 10.5
2006-02-22 07:42:20 51°14.444 2°54.315 265.5 11.4 255 11.3
2006-02-22 07:42:25 51°14.438 2°54.292 258.3 11.4 247 11
2006-02-22 07:42:30 51°14.429 2°54.271 251.7 11.3 243 10.8
2006-02-22 07:42:35 51°14.422 2°54.248 245.4 11.4 241 10.7
2006-02-22 07:42:40 51°14.414 2°54.227 244 11.4 240 10.8
2006-02-22 07:42:44 51°14.407 2°54.209 243.8 11.4 239 10.7
2006-02-22 07:42:50 51°14.398 2°54.182 244.1 11.4 240 10.8
2006-02-22 07:42:55 51°14.39 2°54.161 245.3 11.5 239 10.7
2006-02-22 07:43:00 51°14.382 2°54.138 244.1 11.6 242 10.7
2006-02-22 07:43:05 51°14.374 2°54.116 244.5 11.6 240 10.6
2006-02-22 07:43:10 51°14.366 2°54.093 246 11.7 242 10.5
2006-02-22 07:43:15 51°14.358 2°54.07 244.9 11.9 240 10.5
2006-02-22 07:43:20 51°14.349 2°54.048 244.6 11.9 239 10.6
2006-02-22 07:43:25 51°14.341 2°54.025 244.1 11.8 242 10.5
2006-02-22 07:43:30 51°14.333 2°54.002 243.7 11.8 238 10.6
2006-02-22 07:43:35 51°14.325 2°53.979 244.5 12.2 242 10.7
2006-02-22 07:43:40 51°14.316 2°53.956 245.4 12.2 239 10.5
2006-02-22 07:43:44 51°14.31 2°53.937 244.8 11.9 242 10.6
2006-02-22 07:43:50 51°14.298 2°53.91 244 12.3 234 10.4
2006-02-22 07:43:55 51°14.292 2°53.886 242.7 12.3 245 10.5
2006-02-22 07:44:00 51°14.281 2°53.864 245.8 12.4 232 10.4
2006-02-22 07:44:05 51°14.275 2°53.839 243 12.4 232 10.4
2006-02-22 07:44:10 51°14.265 2°53.818 246.1 12 232 10.4
2006-02-22 07:44:15 51°14.257 2°53.793 243.1 12.4 243 10.3
2006-02-22 07:44:20 51°14.248 2°53.771 244.2 12.4 241 10.4
2006-02-22 07:44:25 51°14.239 2°53.749 244.1 11.9 241 10.6
2006-02-22 07:44:30 51°14.231 2°53.725 242.6 12.2 235 10.7
2006-02-22 07:44:35 51°14.221 2°53.704 244.3 12 239 10.6
2006-02-22 07:44:40 51°14.214 2°53.678 242.4 12 239 10.6
2006-02-22 07:44:45 51°14.205 2°53.656 244.5 12 239 10.6
2006-02-22 07:44:50 51°14.196 2°53.633 245.3 11.9 238 10.8
2006-02-22 07:44:55 51°14.187 2°53.61 243.7 12.4 238 10.6
2006-02-22 07:45:00 51°14.178 2°53.586 242.8 12.6 240 10.5
2006-02-22 07:45:05 51°14.17 2°53.563 245.2 11.9 242 10.9
2006-02-22 07:45:10 51°14.161 2°53.54 244.4 12.2 235 10.5
2006-02-22 07:45:15 51°14.152 2°53.516 243 12.6 243 10.5
2006-02-22 07:45:20 51°14.143 2°53.493 244.8 12.4 236 10.7
2006-02-22 07:45:24 51°14.136 2°53.474 242.4 12.4 240 10.5
2006-02-22 07:45:30 51°14.126 2°53.445 243.1 12.5 241 10.5
2006-02-22 07:45:35 51°14.118 2°53.421 245 12.5 242 10.5
2006-02-22 07:45:40 51°14.11 2°53.396 246.5 12.3 243 10.6
2006-02-22 07:45:45 51°14.103 2°53.372 246.5 12.5 240 10.8
2006-02-22 07:45:50 51°14.094 2°53.348 248.4 12.1 245 10.9
2006-02-22 07:45:55 51°14.088 2°53.323 247.9 12.5 243 10.6
2006-02-22 07:46:00 51°14.079 2°53.3 248.3 12.1 243 10.7
2006-02-22 07:46:05 51°14.07 2°53.277 248.1 12.1 238 10.9
2006-02-22 07:46:10 51°14.062 2°53.253 243.6 12.5 240 10.9
2006-02-22 07:46:15 51°14.054 2°53.229 246.4 12.2 244 11
2006-02-22 07:46:20 51°14.046 2°53.205 246.1 12.2 244 10.9
2006-02-22 07:46:25 51°14.038 2°53.181 246.5 12.2 244 10.9
2006-02-22 07:46:30 51°14.03 2°53.157 247.6 12.2 238 10.8
2006-02-22 07:46:35 51°14.02 2°53.134 244.8 12.6 240 11.1
2006-02-22 07:46:39 51°14.014 2°53.114 244.3 12.5 242 10.9
2006-02-22 07:46:44 51°14.005 2°53.092 246.2 12 245 11.2
2006-02-22 07:46:50 51°13.995 2°53.061 243 12.6 240 10.9
2006-02-22 07:46:55 51°13.987 2°53.039 245 12.5 246 11.1
2006-02-22 07:46:59 51°13.979 2°53.019 247.1 12 237 11.2
2006-02-22 07:47:04 51°13.971 2°52.995 243.8 12.5 241 11
2006-02-22 07:47:10 51°13.961 2°52.966 245.5 12.6 240 11
2006-02-22 07:47:15 51°13.951 2°52.944 246 12 236 11.1
2006-02-22 07:47:19 51°13.944 2°52.924 242.4 12.9 237 11
2006-02-22 07:47:24 51°13.937 2°52.9 244.5 12.5 245 11.5
2006-02-22 07:47:30 51°13.926 2°52.873 246.7 11.9 241 11.4
2006-02-22 07:47:34 51°13.919 2°52.854 243.2 12.6 241 11.4
2006-02-22 07:47:40 51°13.909 2°52.825 245.2 12.4 239 11.1
2006-02-22 07:47:44 51°13.902 2°52.806 245.9 12.2 241 11.1
2006-02-22 07:47:50 51°13.893 2°52.778 244.9 12.1 242 11.5
2006-02-22 07:47:55 51°13.884 2°52.754 246 12.6 238 11.4
2006-02-22 07:47:59 51°13.878 2°52.734 245.7 12.6 241 11.5
2006-02-22 07:48:05 51°13.867 2°52.706 248.1 12.6 241 11.5
2006-02-22 07:48:08 51°13.862 2°52.692 245.2 12.4 239 11.3
2006-02-22 07:48:15 51°13.849 2°52.659 243.8 12.4 237 11.4
2006-02-22 07:48:19 51°13.842 2°52.64 243.9 12.5 240 11.4
2006-02-22 07:48:24 51°13.833 2°52.616 243.3 12.6 240 11.2
2006-02-22 07:48:29 51°13.825 2°52.592 245.8 12.4 242 11.3
2006-02-22 07:48:34 51°13.815 2°52.569 245.4 12.4 237 11.3
2006-02-22 07:48:39 51°13.807 2°52.545 244.8 12.3 241 11.6
2006-02-22 07:48:44 51°13.797 2°52.523 244.2 12.7 234 11.4
2006-02-22 07:48:49 51°13.789 2°52.497 241.6 13 241 11.5
2006-02-22 07:48:54 51°13.781 2°52.474 247.6 12 240 11.4
2006-02-22 07:48:59 51°13.772 2°52.45 244.9 12.3 237 11.4
2006-02-22 07:49:05 51°13.761 2°52.421 245.4 12.6 245 11.5
2006-02-22 07:49:10 51°13.754 2°52.397 245.9 12.6 245 11.5
2006-02-22 07:49:15 51°13.745 2°52.373 246.6 12.6 245 11.4
2006-02-22 07:49:19 51°13.738 2°52.354 246.2 12.4 239 11.3
2006-02-22 07:49:25 51°13.728 2°52.325 245.2 12.6 242 11.4
2006-02-22 07:49:28 51°13.722 2°52.311 245.9 12.8 238 11.6
2006-02-22 07:49:34 51°13.713 2°52.281 245.4 12.4 243 11.8
2006-02-22 07:49:39 51°13.703 2°52.258 246 12.6 235 11.7
2006-02-22 07:49:44 51°13.695 2°52.232 242.8 13.1 239 11.3
2006-02-22 07:49:50 51°13.683 2°52.205 246.5 13.1 239 11.7
2006-02-22 07:49:55 51°13.674 2°52.181 244.7 12.5 236 11.3
2006-02-22 07:49:59 51°13.668 2°52.161 242.6 12.6 241 11.3
2006-02-22 07:50:05 51°13.657 2°52.132 244.8 12.6 241 11.2
2006-02-22 07:50:08 51°13.653 2°52.117 246.8 12.7 242 11.5
2006-02-22 07:50:15 51°13.639 2°52.086 246 12.2 234 11.5
2006-02-22 07:50:20 51°13.63 2°52.061 241.6 12.9 241 11.3
2006-02-22 07:50:24 51°13.624 2°52.042 245.7 12.9 241 11.6
2006-02-22 07:50:30 51°13.614 2°52.015 247.5 12.4 242 11.5
2006-02-22 07:50:35 51°13.605 2°51.992 246.2 11.9 238 11.7
2006-02-22 07:50:39 51°13.598 2°51.972 244.1 12.8 239 11.4
2006-02-22 07:50:44 51°13.59 2°51.948 244.5 12.8 239 11.5
2006-02-22 07:50:49 51°13.581 2°51.927 246.2 12.8 239 11.7
2006-02-22 07:50:54 51°13.572 2°51.903 242.6 12.6 239 11.4
2006-02-22 07:51:00 51°13.561 2°51.875 243.8 12.6 243 11.3
2006-02-22 07:51:04 51°13.555 2°51.855 245.3 12.6 243 11.6
2006-02-22 07:51:10 51°13.544 2°51.828 245.5 12.2 239 11.4
2006-02-22 07:51:15 51°13.537 2°51.803 245.5 12.4 245 11.5
2006-02-22 07:51:19 51°13.53 2°51.785 246.1 12.3 239 11.5
2006-02-22 07:51:24 51°13.522 2°51.762 247.5 11.8 242 11.8
2006-02-22 07:51:30 51°13.511 2°51.734 244.6 12.4 237 11.6
2006-02-22 07:51:35 51°13.503 2°51.71 244 12.6 245 11.6
2006-02-22 07:51:39 51°13.496 2°51.691 246.6 12.2 237 11.6
2006-02-22 07:51:44 51°13.487 2°51.67 245.8 12 239 11.8
2006-02-22 07:51:50 51°13.476 2°51.641 241.6 12 239 11.8
2006-02-22 07:51:55 51°13.465 2°51.619 243.2 12.4 236 11.6
2006-02-22 07:51:59 51°13.459 2°51.6 242.4 12.4 232 11.7
2006-02-22 07:52:04 51°13.45 2°51.578 243.8 12 243 11.8
2006-02-22 07:52:10 51°13.44 2°51.549 242.5 12.1 233 11.6
2006-02-22 07:52:15 51°13.429 2°51.527 242.9 12.7 241 11.5
2006-02-22 07:52:19 51°13.423 2°51.508 243.2 12.3 239 11.6
2006-02-22 07:52:24 51°13.413 2°51.487 243.8 12 240 11.8
2006-02-22 07:52:29 51°13.405 2°51.462 241 12.4 239 11.6
2006-02-22 07:52:35 51°13.394 2°51.434 244 12.2 239 11.8
2006-02-22 07:52:40 51°13.386 2°51.41 244.6 12.5 238 11.6
2006-02-22 07:52:44 51°13.38 2°51.392 246.2 12.5 238 11.8
2006-02-22 07:52:50 51°13.368 2°51.365 246.5 12 237 11.6
2006-02-22 07:52:54 51°13.362 2°51.345 244.3 12.5 242 11.7
2006-02-22 07:53:00 51°13.35 2°51.318 245.2 12.3 239 11.6
2006-02-22 07:53:04 51°13.343 2°51.299 243.1 12.4 237 11.7
2006-02-22 07:53:08 51°13.336 2°51.281 243.4 12.2 239 11.8
2006-02-22 07:53:14 51°13.326 2°51.253 244.9 12.1 241 11.8
2006-02-22 07:53:19 51°13.316 2°51.228 243.6 13 238 11.8
2006-02-22 07:53:25 51°13.308 2°51.199 247.4 12.2 248 12
2006-02-22 07:53:29 51°13.299 2°51.182 247 12.5 232 11.8
2006-02-22 07:53:35 51°13.292 2°51.151 244.7 12.5 235 11.8
2006-02-22 07:53:39 51°13.283 2°51.134 248.1 12.3 242 11.7
2006-02-22 07:53:44 51°13.277 2°51.109 246 12.2 244 11.8
2006-02-22 07:53:50 51°13.264 2°51.081 245.7 12.2 244 11.8
2006-02-22 07:53:54 51°13.259 2°51.061 244.8 12.5 246 12
2006-02-22 07:53:59 51°13.249 2°51.039 246.5 12 236 11.9
2006-02-22 07:54:04 51°13.24 2°51.015 243 12.5 237 11.8
2006-02-22 07:54:10 51°13.23 2°50.988 246.2 12.4 243 12.1
2006-02-22 07:54:14 51°13.222 2°50.969 245 12.7 235 11.7
2006-02-22 07:54:20 51°13.214 2°50.938 243 12.9 245 11.8
2006-02-22 07:54:24 51°13.206 2°50.919 247.9 12.5 240 11.9
2006-02-22 07:54:30 51°13.197 2°50.889 246.4 12.4 244 11.8
2006-02-22 07:54:35 51°13.188 2°50.866 247.6 12.3 242 11.9
2006-02-22 07:54:40 51°13.18 2°50.841 245.6 12.5 239 12
2006-02-22 07:54:44 51°13.173 2°50.823 246.2 12.6 244 12
2006-02-22 07:54:49 51°13.165 2°50.799 246 12.5 239 11.9
2006-02-22 07:54:55 51°13.154 2°50.772 247.4 12 239 12.2
2006-02-22 07:55:00 51°13.145 2°50.748 245.5 12.3 235 11.9
2006-02-22 07:55:04 51°13.138 2°50.729 243.9 12.4 241 12.2
2006-02-22 07:55:10 51°13.126 2°50.701 244.5 12.6 236 11.8
2006-02-22 07:55:14 51°13.121 2°50.681 243.4 12.5 245 12.1
2006-02-22 07:55:20 51°13.109 2°50.654 246.5 12.5 236 12
2006-02-22 07:55:24 51°13.103 2°50.634 244.7 12.5 244 12
2006-02-22 07:55:29 51°13.093 2°50.61 246.6 12.7 236 12.1
2006-02-22 07:55:34 51°13.086 2°50.585 244.7 12.7 246 12.1
2006-02-22 07:55:40 51°13.074 2°50.558 248.6 12.3 235 12
2006-02-22 07:55:44 51°13.068 2°50.538 244.5 12.6 243 12.1
2006-02-22 07:55:48 51°13.061 2°50.52 245.5 12.3 236 12
2006-02-22 07:55:55 51°13.048 2°50.487 245.2 12.4 240 12.1
2006-02-22 07:55:59 51°13.04 2°50.468 243.6 12.9 235 12.2
2006-02-22 07:56:05 51°13.031 2°50.439 245.9 12.3 244 12.2
2006-02-22 07:56:09 51°13.023 2°50.421 246 12.3 237 12.1
2006-02-22 07:56:15 51°13.013 2°50.391 245 12.4 238 12
2006-02-22 07:56:19 51°13.007 2°50.372 245.6 12.4 241 12.1
2006-02-22 07:56:24 51°12.998 2°50.349 247.2 12.2 238 12.1
2006-02-22 07:56:30 51°12.987 2°50.319 244.6 12.3 237 12
2006-02-22 07:56:35 51°12.979 2°50.296 245.2 12.7 241 12.1
2006-02-22 07:56:39 51°12.972 2°50.277 247 12.7 241 12.1
2006-02-22 07:56:44 51°12.963 2°50.254 246.3 12.2 238 12
2006-02-22 07:56:49 51°12.955 2°50.229 244.4 12.6 237 12.1
2006-02-22 07:56:55 51°12.943 2°50.203 246.6 12.1 235 12.2
2006-02-22 07:57:00 51°12.935 2°50.178 243.1 12.4 236 12
2006-02-22 07:57:04 51°12.928 2°50.16 244.2 12.3 242 12.2
2006-02-22 07:57:09 51°12.918 2°50.138 246.4 12.1 234 12.1
2006-02-22 07:57:14 51°12.91 2°50.113 242.6 12.7 241 12
2006-02-22 07:57:20 51°12.899 2°50.085 245 12.4 239 12.2
2006-02-22 07:57:24 51°12.892 2°50.066 245.3 12.5 237 12.1
2006-02-22 07:57:29 51°12.884 2°50.041 245.1 12.6 244 12.2
2006-02-22 07:57:34 51°12.876 2°50.018 247.7 12.2 238 12.3
2006-02-22 07:57:40 51°12.864 2°49.991 245.5 12.2 239 12.2
2006-02-22 07:57:44 51°12.858 2°49.972 244.4 12.5 239 12.2
2006-02-22 07:57:49 51°12.848 2°49.95 243.9 12.2 236 12.3
2006-02-22 07:57:55 51°12.837 2°49.922 243.1 12.2 236 12.4
2006-02-22 07:58:00 51°12.828 2°49.899 243.5 12.4 238 12.3
2006-02-22 07:58:04 51°12.821 2°49.88 244 12.4 239 12.4
2006-02-22 07:58:10 51°12.81 2°49.852 245.3 12.4 238 12.3
2006-02-22 07:58:14 51°12.803 2°49.832 244.8 12.6 237 12.3
2006-02-22 07:58:19 51°12.794 2°49.809 244.1 12.6 240 12.3
2006-02-22 07:58:24 51°12.785 2°49.784 246 12.7 239 12.2
2006-02-22 07:58:30 51°12.776 2°49.755 245.2 12.6 242 12.3
2006-02-22 07:58:34 51°12.768 2°49.736 247.3 12.5 238 12.4
2006-02-22 07:58:40 51°12.759 2°49.707 246.3 12.5 243 12.4
2006-02-22 07:58:44 51°12.751 2°49.688 247.3 12.4 239 12.2
2006-02-22 07:58:50 51°12.741 2°49.659 245.8 12.6 241 12.2
2006-02-22 07:58:54 51°12.734 2°49.642 245.5 12.2 238 12.4
2006-02-22 07:58:59 51°12.725 2°49.619 244.2 12.3 237 12.4
2006-02-22 07:59:04 51°12.715 2°49.596 243.3 12.4 239 12.3
2006-02-22 07:59:10 51°12.704 2°49.568 243 12.6 236 12.3
2006-02-22 07:59:15 51°12.695 2°49.544 242.6 12.4 238 12.5
2006-02-22 07:59:19 51°12.686 2°49.526 243.5 12.2 238 12.4
2006-02-22 07:59:25 51°12.676 2°49.496 241.7 12.2 238 12.3
2006-02-22 07:59:28 51°12.672 2°49.482 245.8 12.4 245 12.5
2006-02-22 07:59:35 51°12.658 2°49.45 246.1 12.3 234 12.3
2006-02-22 07:59:40 51°12.65 2°49.425 243.5 12.8 242 12.3
2006-02-22 07:59:44 51°12.642 2°49.406 246.5 12.7 241 12.2
2006-02-22 07:59:50 51°12.633 2°49.378 245.3 12.4 243 12.5
2006-02-22 07:59:54 51°12.624 2°49.359 245.3 12.4 236 12.5
2006-02-22 08:00:00 51°12.614 2°49.33 244.1 12.6 240 12.4
2006-02-22 08:00:04 51°12.607 2°49.311 244.8 12.7 240 12.4
2006-02-22 08:00:09 51°12.599 2°49.286 245.8 12.6 241 12.4
2006-02-22 08:00:15 51°12.588 2°49.257 246.1 12.6 241 12.4
2006-02-22 08:00:20 51°12.579 2°49.232 246 12.8 242 12.4
2006-02-22 08:00:24 51°12.573 2°49.212 246.3 12.9 241 12.4
2006-02-22 08:00:30 51°12.562 2°49.183 247.4 12.6 242 12.5
2006-02-22 08:00:35 51°12.554 2°49.157 246.8 12.9 241 12.4
2006-02-22 08:00:39 51°12.549 2°49.137 248.5 12.9 241 12.4
2006-02-22 08:00:44 51°12.539 2°49.113 249.4 12.6 239 12.3
2006-02-22 08:00:50 51°12.529 2°49.084 247.6 12.6 239 12.3
2006-02-22 08:00:55 51°12.521 2°49.059 245 12.6 240 12.4
2006-02-22 08:00:59 51°12.514 2°49.041 245.5 12.6 244 12.4
2006-02-22 08:01:04 51°12.505 2°49.016 245.4 12.6 240 12.5
2006-02-22 08:01:10 51°12.495 2°48.988 247 12.4 243 12.4
2006-02-22 08:01:15 51°12.487 2°48.964 246.9 12.4 243 12.5
2006-02-22 08:01:20 51°12.477 2°48.941 245.6 12.4 244 12.4
2006-02-22 08:01:24 51°12.469 2°48.922 244.5 12.8 235 12.3
2006-02-22 08:01:30 51°12.459 2°48.894 244.4 12.1 242 12.5
2006-02-22 08:01:35 51°12.449 2°48.872 244 12.3 231 12.2
2006-02-22 08:01:40 51°12.442 2°48.846 241.4 12.3 231 12.1
2006-02-22 08:01:44 51°12.434 2°48.829 246.7 12.4 244 12.2
2006-02-22 08:01:50 51°12.424 2°48.8 243.5 12.4 240 12.3
2006-02-22 08:01:55 51°12.413 2°48.778 244 12.6 239 12.2
2006-02-22 08:02:00 51°12.406 2°48.754 244.5 12.3 239 12.4
2006-02-22 08:02:04 51°12.397 2°48.737 243.3 12.2 235 12.4
2006-02-22 08:02:09 51°12.388 2°48.712 242.4 12.7 241 12.4
2006-02-22 08:02:14 51°12.379 2°48.689 244.1 12.4 237 12.5
2006-02-22 08:02:20 51°12.369 2°48.662 243.8 12.1 239 12.6
2006-02-22 08:02:24 51°12.361 2°48.642 243.6 12.7 240 12.4
2006-02-22 08:02:29 51°12.354 2°48.617 246.6 12.7 244 12.4
2006-02-22 08:02:35 51°12.344 2°48.589 248 12.7 244 12.5
2006-02-22 08:02:40 51°12.333 2°48.566 246.1 12.3 239 12.4
2006-02-22 08:02:44 51°12.327 2°48.546 243.2 12.8 239 12.4
2006-02-22 08:02:50 51°12.316 2°48.519 245.8 12.2 238 12.4
2006-02-22 08:02:55 51°12.307 2°48.494 244.1 12.7 235 12.4
2006-02-22 08:03:00 51°12.299 2°48.471 245.1 12.6 245 12.4
2006-02-22 08:03:04 51°12.29 2°48.453 245.7 12.6 234 12.3
2006-02-22 08:03:10 51°12.281 2°48.423 242.4 12.7 243 12.5
2006-02-22 08:03:15 51°12.27 2°48.399 245.3 12.6 236 12.3
2006-02-22 08:03:19 51°12.265 2°48.379 244.2 12.7 244 12.3
2006-02-22 08:03:24 51°12.256 2°48.356 247.1 12.2 240 12.4
2006-02-22 08:03:30 51°12.246 2°48.326 246.7 12.8 243 12.2
2006-02-22 08:03:35 51°12.238 2°48.301 247.9 12.8 243 12.3
2006-02-22 08:03:40 51°12.231 2°48.278 249.5 12.1 243 12.5
2006-02-22 08:03:44 51°12.223 2°48.259 247.5 12.4 236 12.3
2006-02-22 08:03:48 51°12.216 2°48.239 245.1 12.8 243 12.5
2006-02-22 08:03:54 51°12.206 2°48.211 247 12.4 240 12.4
2006-02-22 08:03:59 51°12.197 2°48.187 245.8 12.4 238 12.4
2006-02-22 08:04:05 51°12.186 2°48.159 244.3 12.4 239 12.5
2006-02-22 08:04:08 51°12.181 2°48.145 244.3 12.3 240 12.3
2006-02-22 08:04:15 51°12.168 2°48.111 244.9 12.7 238 12.3
2006-02-22 08:04:20 51°12.158 2°48.088 244.3 12.8 239 12.3
2006-02-22 08:04:24 51°12.152 2°48.069 244.3 12.5 241 12.4
2006-02-22 08:04:30 51°12.14 2°48.041 246 12.4 242 12.4
2006-02-22 08:04:34 51°12.134 2°48.021 244.5 12.5 242 12.4
2006-02-22 08:04:40 51°12.123 2°47.993 245.1 12.7 239 12.3
2006-02-22 08:04:44 51°12.117 2°47.973 245.8 12.7 239 12.4
2006-02-22 08:04:50 51°12.106 2°47.946 247.4 12.2 236 12.3
2006-02-22 08:04:55 51°12.097 2°47.922 244.5 12.4 239 12.3
2006-02-22 08:05:00 51°12.087 2°47.901 244 12.4 239 12.2
2006-02-22 08:05:05 51°12.079 2°47.877 242.4 12.3 233 12.2
2006-02-22 08:05:10 51°12.068 2°47.855 242.9 12.6 233 12.2
2006-02-22 08:05:15 51°12.06 2°47.83 241.6 12.7 240 12.2
2006-02-22 08:05:20 51°12.05 2°47.808 244.9 12.7 240 12.2
2006-02-22 08:05:25 51°12.043 2°47.782 243.8 12.4 238 12.2
2006-02-22 08:05:30 51°12.032 2°47.76 245.3 12.7 235 12.1
2006-02-22 08:05:34 51°12.027 2°47.739 245.3 12.5 246 12.2
2006-02-22 08:05:40 51°12.015 2°47.711 246 12.5 246 12
2006-02-22 08:05:44 51°12.01 2°47.691 245.8 12.6 248 12.2
2006-02-22 08:05:50 51°11.997 2°47.664 246.8 12.7 230 12
2006-02-22 08:05:55 51°11.991 2°47.639 243.2 12.8 247 12
2006-02-22 08:06:00 51°11.98 2°47.617 248.1 12.2 240 12
2006-02-22 08:06:04 51°11.974 2°47.596 244.2 12.6 244 12.1
2006-02-22 08:06:09 51°11.967 2°47.572 247.5 12.2 243 12.2
2006-02-22 08:06:15 51°11.956 2°47.544 247.5 12.4 237 12.2
2006-02-22 08:06:19 51°11.95 2°47.525 246.4 12.3 243 12.3
2006-02-22 08:06:24 51°11.94 2°47.502 247.2 12.1 237 12.3
2006-02-22 08:06:29 51°11.932 2°47.478 243.1 12.6 240 12.1
2006-02-22 08:06:35 51°11.922 2°47.45 245.8 12 243 12.4
2006-02-22 08:06:40 51°11.911 2°47.428 246 12.3 232 12.1
2006-02-22 08:06:44 51°11.906 2°47.408 243 12.7 242 12.1
2006-02-22 08:06:50 51°11.894 2°47.382 246.6 12.7 242 12.1
2006-02-22 08:06:55 51°11.886 2°47.357 243.1 12.7 239 11.9
2006-02-22 08:07:00 51°11.876 2°47.334 242.9 12.9 239 12
2006-02-22 08:07:04 51°11.869 2°47.316 245.4 12 237 12.1
2006-02-22 08:07:09 51°11.86 2°47.292 243.1 12.4 239 11.9
2006-02-22 08:07:14 51°11.852 2°47.267 244.5 12.9 242 11.8
2006-02-22 08:07:20 51°11.842 2°47.239 247.9 12.3 241 11.9
2006-02-22 08:07:25 51°11.833 2°47.216 246.7 12.1 239 12
2006-02-22 08:07:30 51°11.824 2°47.192 243.5 12.1 238 11.9
2006-02-22 08:07:35 51°11.815 2°47.168 244.2 12.7 240 11.8
2006-02-22 08:07:39 51°11.808 2°47.149 245.2 12.5 240 11.7
2006-02-22 08:07:44 51°11.8 2°47.124 244.3 12.7 237 11.8
2006-02-22 08:07:50 51°11.788 2°47.096 246.3 12.6 245 11.7
2006-02-22 08:07:54 51°11.783 2°47.075 245.1 12.9 240 11.7
2006-02-22 08:07:59 51°11.774 2°47.051 247.4 12.6 243 11.7
2006-02-22 08:08:05 51°11.764 2°47.021 246.6 12.6 239 11.7
2006-02-22 08:08:08 51°11.759 2°47.007 247.6 12.6 241 11.7
2006-02-22 08:08:15 51°11.746 2°46.973 245.8 13 237 11.6
2006-02-22 08:08:20 51°11.739 2°46.948 245.8 12.9 246 11.7
2006-02-22 08:08:24 51°11.731 2°46.929 248.6 12.4 238 11.7
2006-02-22 08:08:30 51°11.722 2°46.898 246 12.9 244 11.6
2006-02-22 08:08:35 51°11.714 2°46.874 248.1 12.7 242 11.7
2006-02-22 08:08:40 51°11.706 2°46.849 247.9 12.5 244 11.7
2006-02-22 08:08:44 51°11.698 2°46.83 247.9 12.7 240 11.5
2006-02-22 08:08:50 51°11.69 2°46.8 246.4 12.8 241 11.6
2006-02-22 08:08:55 51°11.682 2°46.775 247.2 12.4 244 11.6
2006-02-22 08:09:00 51°11.675 2°46.749 250.3 12.5 249 11.4
2006-02-22 08:09:04 51°11.671 2°46.727 252.2 12.8 252 11.6
2006-02-22 08:09:09 51°11.664 2°46.701 254.9 12.8 247 11.6
2006-02-22 08:09:15 51°11.658 2°46.669 255.2 12.8 247 11.7
2006-02-22 08:09:20 51°11.653 2°46.642 256.5 12.7 252 11.6
2006-02-22 08:09:24 51°11.65 2°46.62 258.5 12.9 257 11.7
2006-02-22 08:09:30 51°11.643 2°46.588 259.1 12.7 251 11.8
2006-02-22 08:09:34 51°11.641 2°46.566 259.8 12.6 260 11.8
2006-02-22 08:09:39 51°11.636 2°46.539 261.2 12.7 252 11.9
2006-02-22 08:09:45 51°11.629 2°46.508 261.7 12.6 254 12.1
2006-02-22 08:09:50 51°11.625 2°46.48 258.3 12.9 250 12.1
2006-02-22 08:09:55 51°11.62 2°46.453 259.6 12.8 258 12.1
2006-02-22 08:09:59 51°11.617 2°46.431 259.9 12.7 255 12.1
2006-02-22 08:10:04 51°11.611 2°46.405 259.3 12.7 251 12.1
2006-02-22 08:10:10 51°11.607 2°46.371 259.1 12.7 254 12.1
2006-02-22 08:10:14 51°11.602 2°46.351 260.7 12.6 251 12.3
2006-02-22 08:10:19 51°11.597 2°46.324 259.2 12.6 254 12.4
2006-02-22 08:10:24 51°11.591 2°46.297 256.8 12.6 252 12.4
2006-02-22 08:10:30 51°11.586 2°46.265 257.9 12.9 252 12.5
2006-02-22 08:10:35 51°11.581 2°46.238 259.3 12.7 250 12.6
2006-02-22 08:10:40 51°11.575 2°46.211 257.9 12.8 256 12.3
2006-02-22 08:10:44 51°11.572 2°46.189 258.7 12.8 255 12.4
2006-02-22 08:10:48 51°11.568 2°46.168 259.5 12.6 254 12.4
2006-02-22 08:10:55 51°11.561 2°46.13 258.2 12.8 252 12.4
2006-02-22 08:11:00 51°11.556 2°46.103 260 12.6 257 12.5
2006-02-22 08:11:04 51°11.552 2°46.082 258.6 12.5 250 12.4
2006-02-22 08:11:09 51°11.548 2°46.054 258 12.8 257 12.4
2006-02-22 08:11:15 51°11.541 2°46.022 259 12.7 250 12.4
2006-02-22 08:11:20 51°11.536 2°45.995 257.6 12.9 255 12.4
2006-02-22 08:11:24 51°11.533 2°45.973 258.8 12.7 256 12.4
2006-02-22 08:11:29 51°11.527 2°45.946 260.5 12.8 253 12.4
2006-02-22 08:11:35 51°11.523 2°45.912 258.1 12.9 257 12.4
2006-02-22 08:11:40 51°11.517 2°45.886 260.8 12.6 252 12.4
2006-02-22 08:11:44 51°11.514 2°45.864 258.8 12.7 253 12.6
2006-02-22 08:11:49 51°11.508 2°45.838 259.1 12.6 252 12.5
2006-02-22 08:11:55 51°11.503 2°45.806 257.5 12.6 252 12.6
2006-02-22 08:11:59 51°11.498 2°45.785 257.2 12.6 253 12.6
2006-02-22 08:12:04 51°11.493 2°45.757 257.1 12.9 252 12.6
2006-02-22 08:12:10 51°11.487 2°45.725 258 12.7 254 12.6
2006-02-22 08:12:14 51°11.483 2°45.703 257.5 12.9 250 12.6
2006-02-22 08:12:19 51°11.478 2°45.675 257.6 13 255 12.6
2006-02-22 08:12:24 51°11.474 2°45.648 259.5 12.8 254 12.8
2006-02-22 08:12:30 51°11.467 2°45.616 260.9 12.8 254 12.6
2006-02-22 08:12:35 51°11.464 2°45.587 259.1 13.1 259 12.7
2006-02-22 08:12:39 51°11.459 2°45.566 259.9 12.8 252 12.6
2006-02-22 08:12:44 51°11.456 2°45.539 260 12.5 257 12.6
2006-02-22 08:12:50 51°11.448 2°45.506 259.3 13.2 250 12.7
2006-02-22 08:12:54 51°11.446 2°45.484 258.7 13.1 259 12.7
2006-02-22 08:12:59 51°11.44 2°45.458 260.6 12.5 249 12.8
2006-02-22 08:13:04 51°11.434 2°45.43 256.6 13.3 250 12.7
2006-02-22 08:13:10 51°11.43 2°45.397 257.5 13.3 250 12.8
2006-02-22 08:13:15 51°11.424 2°45.37 262 12.9 250 12.7
2006-02-22 08:13:20 51°11.421 2°45.342 258.4 13 257 12.9
2006-02-22 08:13:24 51°11.416 2°45.32 261.7 12.8 253 12.9
2006-02-22 08:13:30 51°11.412 2°45.286 259.8 12.9 253 12.8
2006-02-22 08:13:34 51°11.409 2°45.265 261.1 12.8 257 12.9
2006-02-22 08:13:40 51°11.403 2°45.233 261.2 12.4 254 12.9
2006-02-22 08:13:45 51°11.397 2°45.206 258.6 12.5 254 12.9
2006-02-22 08:13:50 51°11.393 2°45.179 257.4 12.5 254 13
2006-02-22 08:13:55 51°11.387 2°45.153 258.4 12.4 252 12.9
2006-02-22 08:14:00 51°11.38 2°45.126 257.6 12.6 250 12.8
2006-02-22 08:14:04 51°11.378 2°45.104 254.9 12.9 253 13
2006-02-22 08:14:10 51°11.37 2°45.072 257.2 12.8 248 12.9
2006-02-22 08:14:14 51°11.366 2°45.05 256.3 13 253 12.8
2006-02-22 08:14:20 51°11.359 2°45.019 259.1 12.7 258 13
2006-02-22 08:14:25 51°11.354 2°44.992 257.7 12.7 249 12.9
2006-02-22 08:14:30 51°11.349 2°44.965 254.7 12.8 254 12.8
2006-02-22 08:14:35 51°11.344 2°44.938 257.1 12.8 250 12.9
2006-02-22 08:14:39 51°11.34 2°44.917 257.3 12.5 254 13.1
2006-02-22 08:14:44 51°11.334 2°44.89 256.4 12.8 250 12.9
2006-02-22 08:14:50 51°11.328 2°44.857 258.4 12.8 255 12.8
2006-02-22 08:14:55 51°11.324 2°44.831 258.4 12.8 255 12.9
2006-02-22 08:15:00 51°11.318 2°44.804 257.9 12.8 252 12.8
2006-02-22 08:15:04 51°11.316 2°44.781 256.6 13 258 12.8
2006-02-22 08:15:08 51°11.311 2°44.76 260.3 12.5 252 13
2006-02-22 08:15:14 51°11.304 2°44.727 256.3 13 251 12.9
2006-02-22 08:15:19 51°11.3 2°44.7 258.3 13 258 12.9
2006-02-22 08:15:25 51°11.294 2°44.667 259.3 12.9 252 12.8
2006-02-22 08:15:28 51°11.292 2°44.65 258.7 13.1 259 12.8
2006-02-22 08:15:35 51°11.284 2°44.61 257.8 13.3 252 12.9
2006-02-22 08:15:40 51°11.279 2°44.584 258.8 12.8 255 12.9
2006-02-22 08:15:44 51°11.275 2°44.562 259.1 12.7 250 13
2006-02-22 08:15:50 51°11.27 2°44.528 257.7 13 256 12.8
2006-02-22 08:15:55 51°11.266 2°44.5 261.2 12.8 259 13.1
2006-02-22 08:16:00 51°11.26 2°44.473 261.3 12.7 254 13
2006-02-22 08:16:04 51°11.257 2°44.451 258.9 13 257 12.9
2006-02-22 08:16:10 51°11.25 2°44.418 259.1 12.8 253 12.8
2006-02-22 08:16:14 51°11.247 2°44.396 256.8 13.1 257 12.9
2006-02-22 08:16:20 51°11.241 2°44.363 258.5 12.9 253 13.1
2006-02-22 08:16:25 51°11.236 2°44.336 259.4 12.8 255 13
2006-02-22 08:16:30 51°11.231 2°44.309 259.1 12.6 255 13.1
2006-02-22 08:16:35 51°11.227 2°44.281 257.9 12.9 253 13.1
2006-02-22 08:16:39 51°11.222 2°44.26 258.5 12.8 258 13
2006-02-22 08:16:44 51°11.217 2°44.234 257.5 12.7 253 13
2006-02-22 08:16:50 51°11.21 2°44.201 257.6 12.8 253 13
2006-02-22 08:16:55 51°11.205 2°44.173 257.1 12.8 253 13
2006-02-22 08:17:00 51°11.201 2°44.145 256.2 13.1 256 13.1
2006-02-22 08:17:04 51°11.197 2°44.124 259.8 12.9 256 13
2006-02-22 08:17:10 51°11.193 2°44.09 260.3 12.9 258 13.1
2006-02-22 08:17:14 51°11.189 2°44.068 260.4 13 255 13
2006-02-22 08:17:19 51°11.186 2°44.04 261.5 12.9 259 13.1
2006-02-22 08:17:24 51°11.182 2°44.013 263.4 12.7 259 13
2006-02-22 08:17:30 51°11.177 2°43.98 263.2 12.7 259 13
2006-02-22 08:17:35 51°11.173 2°43.952 260.6 12.9 257 12.9
2006-02-22 08:17:39 51°11.169 2°43.93 261 12.8 255 12.9
2006-02-22 08:17:44 51°11.165 2°43.902 259.7 12.8 255 13
2006-02-22 08:17:48 51°11.161 2°43.88 260.2 13 255 12.9
2006-02-22 08:17:55 51°11.156 2°43.841 261.1 12.8 259 12.9
2006-02-22 08:18:00 51°11.151 2°43.813 262.7 13 254 12.8
2006-02-22 08:18:04 51°11.149 2°43.79 260.2 13.2 254 12.8
2006-02-22 08:18:10 51°11.144 2°43.757 261.6 13.3 261 12.9
2006-02-22 08:18:15 51°11.139 2°43.73 261.7 12.8 255 12.9
2006-02-22 08:18:20 51°11.135 2°43.701 259.4 13.2 255 12.8
2006-02-22 08:18:24 51°11.132 2°43.679 260.5 13.2 257 13
2006-02-22 08:18:28 51°11.128 2°43.658 262 12.5 252 13
2006-02-22 08:18:34 51°11.122 2°43.624 258.7 13.1 256 13
2006-02-22 08:18:39 51°11.118 2°43.596 257.7 13.2 256 13.1
2006-02-22 08:18:45 51°11.111 2°43.564 261.1 13 261 13
2006-02-22 08:18:50 51°11.108 2°43.536 259.1 12.7 250 13
2006-02-22 08:18:55 51°11.103 2°43.508 258.5 12.9 253 13.2
2006-02-22 08:18:59 51°11.099 2°43.487 260.7 12.9 259 12.9
2006-02-22 08:19:04 51°11.094 2°43.459 257.8 13 257 13
2006-02-22 08:19:10 51°11.089 2°43.427 261.2 12.7 261 13.1
2006-02-22 08:19:14 51°11.084 2°43.406 259.6 12.8 251 12.8
2006-02-22 08:19:19 51°11.08 2°43.377 257.1 13.2 257 12.9
2006-02-22 08:19:24 51°11.076 2°43.35 258.6 13.1 254 13.1
2006-02-22 08:19:30 51°11.07 2°43.317 260.7 12.8 258 13.1
2006-02-22 08:19:35 51°11.067 2°43.29 260.5 12.8 256 13.1
2006-02-22 08:19:40 51°11.062 2°43.261 259.9 13 258 13.1
2006-02-22 08:19:44 51°11.059 2°43.239 260 13.3 255 13.1
2006-02-22 08:19:48 51°11.056 2°43.217 261 13.2 257 13.2
2006-02-22 08:19:54 51°11.05 2°43.184 261 12.8 254 13.2
2006-02-22 08:19:59 51°11.045 2°43.154 258.8 13.7 254 13.2
2006-02-22 08:20:05 51°11.041 2°43.121 262.4 13 261 13.1
2006-02-22 08:20:10 51°11.038 2°43.093 262.4 13 256 12.9
2006-02-22 08:20:15 51°11.033 2°43.065 261.4 12.9 259 13
2006-02-22 08:20:20 51°11.03 2°43.037 260.8 13.1 257 13
2006-02-22 08:20:24 51°11.027 2°43.014 261.5 13.1 260 13
2006-02-22 08:20:30 51°11.022 2°42.981 262.7 13.1 258 13
2006-02-22 08:20:35 51°11.018 2°42.954 262.7 12.8 255 13.1
2006-02-22 08:20:39 51°11.015 2°42.93 260 13.1 256 13.1
2006-02-22 08:20:44 51°11.011 2°42.903 261.2 13 257 13.1
2006-02-22 08:20:50 51°11.006 2°42.87 261.8 12.7 258 13.2
2006-02-22 08:20:54 51°11.002 2°42.847 260.6 13.2 256 13.1
2006-02-22 08:20:59 51°10.999 2°42.819 261 13.1 258 13.1
2006-02-22 08:21:05 51°10.994 2°42.787 262.1 12.8 257 13.1
2006-02-22 08:21:10 51°10.989 2°42.759 260.2 12.7 254 13.1
2006-02-22 08:21:15 51°10.986 2°42.73 259.5 13.1 256 13
2006-02-22 08:21:20 51°10.981 2°42.703 262 13.1 260 13
2006-02-22 08:21:24 51°10.978 2°42.681 260.5 12.9 253 13
2006-02-22 08:21:30 51°10.972 2°42.649 259.8 12.9 258 13
2006-02-22 08:21:34 51°10.969 2°42.626 259.8 13.1 255 13
2006-02-22 08:21:39 51°10.965 2°42.597 259 13.5 255 13
2006-02-22 08:21:45 51°10.961 2°42.565 262.1 12.5 259 13.1
2006-02-22 08:21:50 51°10.956 2°42.537 262 12.4 258 12.9
2006-02-22 08:21:54 51°10.953 2°42.514 259.9 13.2 258 12.9
2006-02-22 08:22:00 51°10.948 2°42.481 261.6 13.2 258 12.9
2006-02-22 08:22:04 51°10.946 2°42.458 261.2 12.7 260 13
2006-02-22 08:22:09 51°10.94 2°42.432 261.5 12.8 252 12.9
2006-02-22 08:22:15 51°10.937 2°42.398 259.8 12.8 252 13.1
2006-02-22 08:22:20 51°10.931 2°42.37 260.9 13.2 252 13
2006-02-22 08:22:24 51°10.929 2°42.348 260.3 12.9 260 13.2
2006-02-22 08:22:30 51°10.923 2°42.316 260.3 12.6 251 13.3
2006-02-22 08:22:35 51°10.917 2°42.289 259.8 12.6 251 13.1
2006-02-22 08:22:40 51°10.914 2°42.26 257.8 13.1 251 13.2
2006-02-22 08:22:44 51°10.91 2°42.238 260.2 13.1 255 13.2
2006-02-22 08:22:49 51°10.906 2°42.21 260.4 13 256 13
2006-02-22 08:22:54 51°10.901 2°42.183 259.5 12.7 256 13.1
2006-02-22 08:22:59 51°10.896 2°42.156 259.6 12.9 254 13.3
2006-02-22 08:23:04 51°10.892 2°42.127 258.4 13.2 258 13
2006-02-22 08:23:08 51°10.889 2°42.104 259.6 13.2 258 13
2006-02-22 08:23:15 51°10.883 2°42.066 262.2 12.7 257 13.4
2006-02-22 08:23:19 51°10.879 2°42.044 260.3 13 254 13.2
2006-02-22 08:23:24 51°10.876 2°42.016 260.2 13 261 13.1
2006-02-22 08:23:28 51°10.872 2°41.994 260.5 12.9 256 12.9
2006-02-22 08:23:34 51°10.869 2°41.96 260.9 13 262 12.8
2006-02-22 08:23:39 51°10.865 2°41.933 263 12.7 256 13
2006-02-22 08:23:44 51°10.86 2°41.906 260.9 12.7 257 13
2006-02-22 08:23:50 51°10.855 2°41.873 259.3 12.8 254 13.1
2006-02-22 08:23:55 51°10.851 2°41.845 259.1 12.9 255 13.2
2006-02-22 08:24:00 51°10.846 2°41.817 259.4 13 256 13.1
2006-02-22 08:24:04 51°10.843 2°41.795 259.2 12.8 258 13
2006-02-22 08:24:10 51°10.837 2°41.763 261.9 12.6 260 12.9
2006-02-22 08:24:14 51°10.835 2°41.74 258.7 12.9 260 12.9
2006-02-22 08:24:19 51°10.83 2°41.713 260.2 12.8 255 13
2006-02-22 08:24:24 51°10.827 2°41.686 261.1 12.6 255 13.1
2006-02-22 08:24:30 51°10.821 2°41.653 260.2 12.5 259 13
2006-02-22 08:24:35 51°10.818 2°41.625 259.7 12.9 260 13.1
2006-02-22 08:24:40 51°10.812 2°41.599 260.2 12.7 255 13.1
2006-02-22 08:24:44 51°10.81 2°41.576 258.1 12.9 258 13.2
2006-02-22 08:24:50 51°10.804 2°41.543 258.7 13.1 254 13.1
2006-02-22 08:24:55 51°10.801 2°41.516 260.6 12.5 261 13.3
2006-02-22 08:25:00 51°10.796 2°41.489 261.2 12.7 254 13.1
2006-02-22 08:25:05 51°10.793 2°41.461 259 12.9 255 13
2006-02-22 08:25:10 51°10.787 2°41.434 259.6 12.9 255 12.8
2006-02-22 08:25:15 51°10.784 2°41.407 258.8 12.7 261 13
2006-02-22 08:25:19 51°10.779 2°41.385 259.9 12.6 254 12.9
2006-02-22 08:25:24 51°10.776 2°41.358 256.8 12.9 256 13
2006-02-22 08:25:30 51°10.771 2°41.325 259.4 12.8 257 13
2006-02-22 08:25:35 51°10.767 2°41.297 259.8 12.8 255 13.1
2006-02-22 08:25:40 51°10.763 2°41.269 259.1 12.9 257 13.2
2006-02-22 08:25:45 51°10.758 2°41.241 261.4 12.8 259 13
2006-02-22 08:25:50 51°10.756 2°41.213 258.9 12.9 260 13.1
2006-02-22 08:25:55 51°10.75 2°41.187 263.1 12.9 260 13.1
2006-02-22 08:26:00 51°10.747 2°41.158 259.1 13 256 13
2006-02-22 08:26:04 51°10.745 2°41.135 261.2 13.1 261 13.1
2006-02-22 08:26:10 51°10.74 2°41.101 263.8 13 260 13.1
2006-02-22 08:26:14 51°10.738 2°41.079 262.5 13 260 13.1
2006-02-22 08:26:19 51°10.735 2°41.051 262.2 12.9 258 13.1
2006-02-22 08:26:24 51°10.732 2°41.023 262.2 12.9 260 13.1
2006-02-22 08:26:30 51°10.728 2°40.989 264 12.9 260 13.1
2006-02-22 08:26:35 51°10.725 2°40.961 263 12.8 258 13.3
2006-02-22 08:26:40 51°10.719 2°40.934 261.9 12.8 262 13.1
2006-02-22 08:26:44 51°10.718 2°40.911 259.2 12.9 261 13.4
2006-02-22 08:26:49 51°10.711 2°40.885 260.5 13 250 13.1
2006-02-22 08:26:55 51°10.708 2°40.85 258.6 13 250 13.1
2006-02-22 08:27:00 51°10.703 2°40.823 259.8 13.2 252 13.3
2006-02-22 08:27:04 51°10.701 2°40.8 259.6 12.9 263 13.3
2006-02-22 08:27:10 51°10.695 2°40.767 261.2 12.7 260 13.3
2006-02-22 08:27:15 51°10.691 2°40.739 258.3 13 259 13.4
2006-02-22 08:27:19 51°10.688 2°40.717 259.3 12.8 255 13.5
2006-02-22 08:27:24 51°10.683 2°40.69 258.4 12.9 256 13.6
2006-02-22 08:27:28 51°10.68 2°40.668 258 12.8 256 13.6
2006-02-22 08:27:34 51°10.675 2°40.634 257.8 12.9 257 13.6
2006-02-22 08:27:40 51°10.67 2°40.601 258 12.9 257 13.7
2006-02-22 08:27:44 51°10.667 2°40.579 258.6 12.9 257 13.7
2006-02-22 08:27:50 51°10.661 2°40.545 258.1 13 255 13.7
2006-02-22 08:27:55 51°10.657 2°40.518 257.5 13 257 13.7
2006-02-22 08:27:59 51°10.653 2°40.495 256.9 13 257 13.8
2006-02-22 08:28:05 51°10.647 2°40.462 258.3 12.9 256 13.8
2006-02-22 08:28:10 51°10.643 2°40.433 256.6 13.4 257 13.8
2006-02-22 08:28:15 51°10.638 2°40.405 256.9 13.4 253 13.9
2006-02-22 08:28:19 51°10.634 2°40.383 256.9 13 255 13.8
2006-02-22 08:28:25 51°10.629 2°40.349 254.7 13.3 252 13.9
2006-02-22 08:28:30 51°10.622 2°40.321 256.2 13.4 258 13.8
2006-02-22 08:28:35 51°10.619 2°40.292 256 13.3 257 14.1
2006-02-22 08:28:40 51°10.612 2°40.265 257.6 13.2 261 14.1
2006-02-22 08:28:44 51°10.609 2°40.241 255 13.5 249 14.1
2006-02-22 08:28:50 51°10.603 2°40.209 257.8 12.9 255 14.1
2006-02-22 08:28:55 51°10.6 2°40.18 256.3 13 251 14.2
2006-02-22 08:29:00 51°10.593 2°40.153 256.9 13.2 260 14.2
2006-02-22 08:29:04 51°10.59 2°40.131 256.1 13.2 250 14.3
2006-02-22 08:29:10 51°10.583 2°40.098 256.2 13 257 14.4
2006-02-22 08:29:15 51°10.58 2°40.07 254.9 13 254 14.4
2006-02-22 08:29:20 51°10.572 2°40.043 255.7 12.9 259 14.5
2006-02-22 08:29:24 51°10.569 2°40.02 254.7 13.4 254 14.5
2006-02-22 08:29:30 51°10.563 2°39.987 257.6 12.9 257 14.6
2006-02-22 08:29:34 51°10.559 2°39.964 255.8 13.2 252 14.5
2006-02-22 08:29:40 51°10.555 2°39.93 256.1 13.4 260 14.7
2006-02-22 08:29:44 51°10.551 2°39.908 258.4 13.1 254 14.6
2006-02-22 08:29:50 51°10.545 2°39.873 256.7 13.4 255 14.8
2006-02-22 08:29:54 51°10.542 2°39.851 257.4 13 257 14.9
2006-02-22 08:30:00 51°10.536 2°39.817 256.8 13.3 253 14.9
2006-02-22 08:30:04 51°10.533 2°39.794 257.5 13.3 258 15
2006-02-22 08:30:08 51°10.529 2°39.773 257.9 12.9 255 15.1
2006-02-22 08:30:14 51°10.523 2°39.739 258 13.3 255 15
2006-02-22 08:30:19 51°10.52 2°39.71 256.4 13.3 259 15.3
2006-02-22 08:30:24 51°10.513 2°39.682 258.3 13.2 255 15.2
2006-02-22 08:30:30 51°10.51 2°39.648 256.7 13.2 255 15.1
2006-02-22 08:30:35 51°10.504 2°39.621 257.6 13.1 252 15.1
2006-02-22 08:30:40 51°10.5 2°39.591 256.2 13.1 254 15.2
2006-02-22 08:30:44 51°10.496 2°39.569 257.6 13.4 254 15.3
2006-02-22 08:30:50 51°10.49 2°39.534 257.5 13.2 257 15.4
2006-02-22 08:30:55 51°10.486 2°39.506 256.5 13.5 253 15.4
2006-02-22 08:31:00 51°10.481 2°39.477 258.3 13.5 253 15.4
2006-02-22 08:31:04 51°10.478 2°39.454 258.2 13.3 253 15.6
2006-02-22 08:31:09 51°10.475 2°39.425 257.9 13.3 260 15.4
2006-02-22 08:31:15 51°10.469 2°39.392 259.7 13.2 253 15.5
2006-02-22 08:31:20 51°10.465 2°39.364 258.4 13.1 260 15.5
2006-02-22 08:31:25 51°10.46 2°39.336 257.9 13 252 15.6
2006-02-22 08:31:28 51°10.457 2°39.319 257.8 13.4 253 15.6
2006-02-22 08:31:35 51°10.451 2°39.279 255.9 13.4 253 15.7
2006-02-22 08:31:40 51°10.443 2°39.252 257.6 13.2 249 15.4
2006-02-22 08:31:44 51°10.442 2°39.229 254.1 13.1 255 15.6
2006-02-22 08:31:49 51°10.434 2°39.203 257.1 12.9 247 15.6
2006-02-22 08:31:54 51°10.431 2°39.175 254.1 13.1 256 15.5
2006-02-22 08:32:00 51°10.424 2°39.142 254.9 12.9 251 15.8
2006-02-22 08:32:05 51°10.417 2°39.116 254.6 12.9 252 15.6
2006-02-22 08:32:10 51°10.413 2°39.087 252.3 13.4 254 15.8
2006-02-22 08:32:15 51°10.408 2°39.059 254.1 13.3 253 15.8
2006-02-22 08:32:20 51°10.403 2°39.031 257 13.3 253 15.8
2006-02-22 08:32:25 51°10.399 2°39.002 256.8 13.2 255 15.9
2006-02-22 08:32:28 51°10.397 2°38.985 258.9 13.1 257 16
2006-02-22 08:32:34 51°10.39 2°38.952 256.8 13.3 254 16.2
2006-02-22 08:32:39 51°10.387 2°38.923 258.3 13.1 259 16.8
2006-02-22 08:32:45 51°10.381 2°38.889 258.7 13.1 253 16.6
2006-02-22 08:32:50 51°10.377 2°38.861 258 13.2 255 16.5
2006-02-22 08:32:55 51°10.372 2°38.833 258.3 13.3 255 16.6
2006-02-22 08:33:00 51°10.368 2°38.804 257.7 13.2 256 16.7
2006-02-22 08:33:04 51°10.364 2°38.782 257 13.2 255 16.7
2006-02-22 08:33:10 51°10.357 2°38.747 256.9 13.7 252 16.5
2006-02-22 08:33:15 51°10.353 2°38.718 255.2 13.6 256 16.7
2006-02-22 08:33:20 51°10.347 2°38.691 257.3 13.3 255 16.6
2006-02-22 08:33:24 51°10.343 2°38.667 254.8 13.3 252 16.6
2006-02-22 08:33:30 51°10.337 2°38.633 255.5 13.5 255 16.6
2006-02-22 08:33:35 51°10.332 2°38.606 256.7 13 253 16.6
2006-02-22 08:33:40 51°10.326 2°38.578 255.3 13 255 16.4
2006-02-22 08:33:44 51°10.323 2°38.555 254.2 13.4 252 16.5
2006-02-22 08:33:49 51°10.317 2°38.528 256.3 12.9 252 16.4
2006-02-22 08:33:55 51°10.312 2°38.494 255.2 13.2 251 16.3
2006-02-22 08:34:00 51°10.306 2°38.467 254.8 13.3 257 16.2
2006-02-22 08:34:05 51°10.302 2°38.44 256.1 12.8 252 16.5
2006-02-22 08:34:10 51°10.294 2°38.412 254.6 12.7 255 16.3
2006-02-22 08:34:15 51°10.29 2°38.385 254.1 13.1 258 16.4
2006-02-22 08:34:20 51°10.284 2°38.358 255.5 12.6 251 16.5
2006-02-22 08:34:24 51°10.28 2°38.335 250.9 13.3 254 16.4
2006-02-22 08:34:30 51°10.273 2°38.302 254.4 13.3 254 16.7
2006-02-22 08:34:34 51°10.269 2°38.28 256 12.9 252 16.8
2006-02-22 08:34:40 51°10.262 2°38.246 254 13.2 252 16.8
2006-02-22 08:34:45 51°10.257 2°38.218 254 13.5 252 17.1
2006-02-22 08:34:50 51°10.252 2°38.19 256 13.5 252 17
2006-02-22 08:34:55 51°10.247 2°38.162 255.4 13.1 255 17.1
2006-02-22 08:34:59 51°10.242 2°38.14 255.9 13.2 255 17
2006-02-22 08:35:04 51°10.237 2°38.112 254.4 13.4 251 17
2006-02-22 08:35:10 51°10.231 2°38.079 255.2 12.9 254 17.2
2006-02-22 08:35:15 51°10.225 2°38.051 255.5 12.9 251 16.9
2006-02-22 08:35:20 51°10.221 2°38.022 253.7 12.9 251 17.2
2006-02-22 08:35:24 51°10.217 2°38.001 256.6 13 254 17
2006-02-22 08:35:30 51°10.211 2°37.969 257.1 12.5 253 17.3
2006-02-22 08:35:35 51°10.203 2°37.94 253.3 13.5 248 17.1
2006-02-22 08:35:40 51°10.2 2°37.912 252.8 13.7 251 17.3
2006-02-22 08:35:44 51°10.193 2°37.893 256.2 12.5 247 17.2
2006-02-22 08:35:50 51°10.187 2°37.858 251.2 12.6 245 17.3
2006-02-22 08:35:55 51°10.183 2°37.83 252.6 13.4 256 17.5
2006-02-22 08:36:00 51°10.178 2°37.803 258 12.7 255 17.5
2006-02-22 08:36:04 51°10.174 2°37.78 256.8 12.7 253 17.7
2006-02-22 08:36:10 51°10.167 2°37.746 255 13.4 253 17.7
2006-02-22 08:36:15 51°10.163 2°37.719 256.1 12.9 256 18
2006-02-22 08:36:20 51°10.157 2°37.691 255.5 12.9 256 17.8
2006-02-22 08:36:25 51°10.151 2°37.664 255 13.3 255 17.6
2006-02-22 08:36:28 51°10.149 2°37.648 254.6 12.7 255 18
2006-02-22 08:36:35 51°10.138 2°37.61 254.4 13.2 245 17.7
2006-02-22 08:36:40 51°10.136 2°37.58 250.6 13.5 244 17.8
2006-02-22 08:36:45 51°10.128 2°37.554 255.5 13.5 258 18
2006-02-22 08:36:48 51°10.126 2°37.537 254.5 13.1 254 18
2006-02-22 08:36:55 51°10.117 2°37.498 252.8 13.5 249 18.2
2006-02-22 08:36:59 51°10.115 2°37.475 253.9 13.2 258 18.2
2006-02-22 08:37:05 51°10.107 2°37.442 256.2 13.2 255 18.1
2006-02-22 08:37:10 51°10.103 2°37.413 254.7 13.4 258 18.2
2006-02-22 08:37:15 51°10.097 2°37.385 256.5 13.4 251 18.3
2006-02-22 08:37:20 51°10.092 2°37.356 254.3 13.5 255 18.1
2006-02-22 08:37:25 51°10.086 2°37.328 255.9 13.3 252 18.1
2006-02-22 08:37:30 51°10.081 2°37.3 254 13.3 251 18.1
2006-02-22 08:37:35 51°10.075 2°37.272 254.1 13.3 253 18
2006-02-22 08:37:40 51°10.069 2°37.243 253.6 13.5 250 18.1
2006-02-22 08:37:44 51°10.066 2°37.22 254.3 13.3 258 18
2006-02-22 08:37:48 51°10.061 2°37.199 256.2 13.3 250 18.1
2006-02-22 08:37:55 51°10.054 2°37.159 255.6 13.4 258 17.9
2006-02-22 08:37:59 51°10.05 2°37.136 256.3 13.3 252 18.1
2006-02-22 08:38:04 51°10.046 2°37.108 256.8 13.2 256 18.2
2006-02-22 08:38:10 51°10.04 2°37.074 256.9 13.1 253 18.2
2006-02-22 08:38:15 51°10.035 2°37.047 256.7 13 257 18.2
2006-02-22 08:38:20 51°10.031 2°37.018 257.3 13 255 18.3
2006-02-22 08:38:24 51°10.028 2°36.996 257.3 13.2 258 18.2
2006-02-22 08:38:30 51°10.025 2°36.962 259.2 13 259 18.5
2006-02-22 08:38:35 51°10.021 2°36.933 262 13.1 258 18.3
2006-02-22 08:38:40 51°10.02 2°36.904 262.7 13.2 265 18.2
2006-02-22 08:38:45 51°10.017 2°36.876 264.9 13.1 264 18.3
2006-02-22 08:38:50 51°10.015 2°36.846 265.6 13.1 262 18.2
2006-02-22 08:38:55 51°10.014 2°36.817 265 13.3 265 18.2
2006-02-22 08:39:00 51°10.012 2°36.788 267.6 13.3 267 18.2
2006-02-22 08:39:04 51°10.011 2°36.765 268.2 13.3 265 18.3
2006-02-22 08:39:10 51°10.01 2°36.73 267.4 13.2 268 18
2006-02-22 08:39:15 51°10.008 2°36.701 268.5 13.1 263 18.3
2006-02-22 08:39:19 51°10.007 2°36.678 266.7 13 265 18.2
2006-02-22 08:39:25 51°10.004 2°36.644 267 13.2 263 18.2
2006-02-22 08:39:30 51°10.002 2°36.615 266.1 13.1 262 18.3
2006-02-22 08:39:35 51°10.001 2°36.586 266.3 13.2 263 18.2
2006-02-22 08:39:40 51°9.999 2°36.558 266.3 13 267 18.3
2006-02-22 08:39:44 51°9.997 2°36.534 266.5 13.2 263 18.2
2006-02-22 08:39:50 51°9.994 2°36.498 267.3 13.6 264 18
2006-02-22 08:39:55 51°9.994 2°36.469 265.8 13.4 264 18.4
2006-02-22 08:40:00 51°9.99 2°36.441 266.8 13.2 267 18
2006-02-22 08:40:04 51°9.99 2°36.416 263.8 13.4 261 18
2006-02-22 08:40:10 51°9.988 2°36.381 266.6 13.4 261 18.2
2006-02-22 08:40:15 51°9.986 2°36.353 267.6 13.1 264 18.3
2006-02-22 08:40:20 51°9.986 2°36.323 266.2 13.3 265 18.4
2006-02-22 08:40:24 51°9.985 2°36.299 269.8 13.4 269 18.2
2006-02-22 08:40:29 51°9.987 2°36.27 272.2 13.2 274 18.1
2006-02-22 08:40:35 51°9.989 2°36.235 274.8 13.2 274 18.3
2006-02-22 08:40:40 51°9.992 2°36.206 277.4 13.3 274 18.4
2006-02-22 08:40:45 51°9.993 2°36.177 280 13.2 281 18.3
2006-02-22 08:40:50 51°9.996 2°36.148 280.1 13.1 275 18.5
2006-02-22 08:40:55 51°9.999 2°36.12 280.1 13.3 276 18.6
2006-02-22 08:41:00 51°10.002 2°36.091 281.2 13.2 281 18.6
2006-02-22 08:41:04 51°10.005 2°36.068 281.2 13.1 280 18.5
2006-02-22 08:41:10 51°10.012 2°36.036 284.9 13.1 283 18.5
2006-02-22 08:41:15 51°10.018 2°36.009 289.8 13.1 285 18.2
2006-02-22 08:41:20 51°10.025 2°35.982 294 13.1 285 17.9
2006-02-22 08:41:25 51°10.033 2°35.957 295.7 13.1 292 17.7
2006-02-22 08:41:29 51°10.04 2°35.937 298 12.9 299 17.5
2006-02-22 08:41:34 51°10.049 2°35.912 301.2 12.8 300 17.1
2006-02-22 08:41:39 51°10.061 2°35.89 305.3 12.9 308 16.7
2006-02-22 08:41:45 51°10.074 2°35.864 310.1 12.6 308 16.6
2006-02-22 08:41:50 51°10.086 2°35.844 313.6 12.5 312 15.6
2006-02-22 08:41:54 51°10.097 2°35.83 317.1 12.6 319 15.2
2006-02-22 08:42:00 51°10.113 2°35.809 321.1 12.5 319 14.4
2006-02-22 08:42:04 51°10.125 2°35.796 325.3 12.6 325 13.8
2006-02-22 08:42:10 51°10.143 2°35.78 328.6 12.6 330 13.2
2006-02-22 08:42:15 51°10.158 2°35.769 334.5 12.7 335 12.6
2006-02-22 08:42:20 51°10.175 2°35.762 340 12.7 335 11.9
2006-02-22 08:42:25 51°10.192 2°35.757 345.9 12.3 345 11.6
2006-02-22 08:42:28 51°10.202 2°35.755 352.4 12.1 353 11.4
2006-02-22 08:42:35 51°10.225 2°35.756 358.9 12.2 -999 11.3
2006-02-22 08:42:40 51°10.242 2°35.76 5 12.1 2 11.4
2006-02-22 08:42:45 51°10.258 2°35.767 11.1 11.9 8 11.2
2006-02-22 08:42:48 51°10.267 2°35.771 17 12 16 11.1
2006-02-22 08:42:55 51°10.288 2°35.785 21.7 11.8 23 11.2
2006-02-22 08:43:00 51°10.303 2°35.797 27.2 12 26 11.1
2006-02-22 08:43:05 51°10.318 2°35.81 31.2 12 27 11
2006-02-22 08:43:08 51°10.326 2°35.817 32.6 12 27 11.2
2006-02-22 08:43:15 51°10.347 2°35.835 33.1 12 27 11.3
2006-02-22 08:43:20 51°10.362 2°35.848 33.7 12.1 28 11.2
2006-02-22 08:43:25 51°10.377 2°35.862 34.9 12.5 30 11.2
2006-02-22 08:43:28 51°10.386 2°35.869 34.8 12.2 29 11.4
2006-02-22 08:43:35 51°10.406 2°35.888 35.2 12 30 11.3
2006-02-22 08:43:39 51°10.418 2°35.899 35.8 12.3 30 11.3
2006-02-22 08:43:44 51°10.433 2°35.913 35.8 12.4 31 11.6
2006-02-22 08:43:48 51°10.445 2°35.924 35.3 12.4 31 11.3
2006-02-22 08:43:55 51°10.466 2°35.944 35.5 12.4 30 11.3
2006-02-22 08:44:00 51°10.481 2°35.957 36.1 12.5 30 11.5
2006-02-22 08:44:05 51°10.495 2°35.971 36 12.5 31 11.5
2006-02-22 08:44:10 51°10.51 2°35.985 35.9 12.3 31 11.2
2006-02-22 08:44:15 51°10.524 2°36 36.5 12.3 31 11.4
2006-02-22 08:44:20 51°10.539 2°36.013 36.6 12.5 31 11.3
2006-02-22 08:44:24 51°10.551 2°36.025 36.2 12.4 31 11.2
2006-02-22 08:44:30 51°10.568 2°36.041 36.3 12.2 31 11.2
2006-02-22 08:44:35 51°10.583 2°36.055 36.6 12.4 32 11.1
2006-02-22 08:44:40 51°10.598 2°36.069 36.5 12.4 32 11.1
2006-02-22 08:44:45 51°10.613 2°36.084 36.5 12.4 33 11.2
2006-02-22 08:44:48 51°10.622 2°36.092 36.7 12.5 32 11.2
2006-02-22 08:44:55 51°10.642 2°36.112 36.6 12.5 31 11.4
2006-02-22 08:45:00 51°10.656 2°36.126 37 12.3 32 11.7
2006-02-22 08:45:04 51°10.668 2°36.138 37.1 12.3 31 11.2
2006-02-22 08:45:09 51°10.683 2°36.152 36.5 12.4 31 11.5
2006-02-22 08:45:15 51°10.701 2°36.168 36.3 12.4 31 11.4
2006-02-22 08:45:20 51°10.715 2°36.182 36.2 12.4 30 11.5
2006-02-22 08:45:24 51°10.727 2°36.193 36.6 12.2 31 11.3
2006-02-22 08:45:30 51°10.745 2°36.21 36.8 12.2 31 11.5
2006-02-22 08:45:35 51°10.76 2°36.224 36.5 12.5 30 11.5
2006-02-22 08:45:40 51°10.775 2°36.238 35.5 12.2 31 11.7
2006-02-22 08:45:44 51°10.787 2°36.249 36.4 12.3 32 11.8
2006-02-22 08:45:50 51°10.804 2°36.266 36.3 12.4 31 12
2006-02-22 08:45:55 51°10.818 2°36.28 36.5 12.4 31 12.2
2006-02-22 08:46:00 51°10.833 2°36.294 37 12.3 32 12.1
2006-02-22 08:46:04 51°10.844 2°36.305 37 12.2 32 11.8
2006-02-22 08:46:10 51°10.861 2°36.323 37.9 12.3 33 11.9
2006-02-22 08:46:15 51°10.876 2°36.337 37.6 12.4 32 11.9
2006-02-22 08:46:19 51°10.887 2°36.349 37.4 12.4 33 11.9
2006-02-22 08:46:24 51°10.902 2°36.363 38 12.2 32 12
2006-02-22 08:46:30 51°10.918 2°36.381 38.3 12.2 32 12.1
2006-02-22 08:46:35 51°10.933 2°36.397 39.2 12.4 34 12.4
2006-02-22 08:46:39 51°10.944 2°36.409 39.6 12.6 35 12.4
2006-02-22 08:46:44 51°10.958 2°36.425 39.9 12.4 36 12.5
2006-02-22 08:46:50 51°10.975 2°36.444 40.1 12.2 35 12.3
2006-02-22 08:46:55 51°10.989 2°36.459 40.7 12.4 35 12.4
2006-02-22 08:47:00 51°11.002 2°36.474 40.5 12.3 35 12.5
2006-02-22 08:47:04 51°11.013 2°36.486 40.4 12.3 35 12.3
2006-02-22 08:47:10 51°11.03 2°36.505 40.4 12.2 35 12.5
2006-02-22 08:47:15 51°11.044 2°36.52 40.1 12.2 35 12.3
2006-02-22 08:47:19 51°11.056 2°36.533 40.6 12.3 34 12.6
2006-02-22 08:47:24 51°11.07 2°36.548 39.9 12.4 34 12.4
2006-02-22 08:47:29 51°11.084 2°36.563 40.4 12.3 35 12.5
2006-02-22 08:47:35 51°11.101 2°36.582 40.4 12.3 35 12.7
2006-02-22 08:47:40 51°11.115 2°36.597 40.6 12.3 35 12.8
2006-02-22 08:47:44 51°11.126 2°36.61 41 12.5 35 12.6
2006-02-22 08:47:50 51°11.143 2°36.629 40.9 12.4 35 12.6
2006-02-22 08:47:54 51°11.155 2°36.642 40.6 12.4 36 12.5
2006-02-22 08:48:00 51°11.172 2°36.661 40.8 12.4 36 12.7
2006-02-22 08:48:05 51°11.186 2°36.676 41.4 12.6 35 12.7
2006-02-22 08:48:08 51°11.194 2°36.685 41 12.4 34 12.6
2006-02-22 08:48:15 51°11.214 2°36.707 40.6 12.3 35 13
2006-02-22 08:48:20 51°11.228 2°36.723 40.9 12.5 35 12.8
2006-02-22 08:48:25 51°11.243 2°36.738 40.8 12.4 35 13.1
2006-02-22 08:48:30 51°11.257 2°36.753 40.2 12.3 34 12.8
2006-02-22 08:48:35 51°11.271 2°36.769 40.4 12.2 35 13
2006-02-22 08:48:39 51°11.282 2°36.782 40.8 12.5 36 13
2006-02-22 08:48:45 51°11.299 2°36.801 40.6 12.4 36 13.1
2006-02-22 08:48:50 51°11.313 2°36.816 40.8 12.4 35 13.1
2006-02-22 08:48:55 51°11.327 2°36.831 41 12.4 35 13.1
2006-02-22 08:49:00 51°11.341 2°36.846 40.6 12.4 35 13.2
2006-02-22 08:49:04 51°11.353 2°36.859 40.3 12.3 35 13.1
2006-02-22 08:49:10 51°11.37 2°36.878 40.3 12.5 35 13.2
2006-02-22 08:49:15 51°11.384 2°36.894 40.6 12.5 35 13.2
2006-02-22 08:49:20 51°11.398 2°36.91 41.3 12.3 36 13.2
2006-02-22 08:49:24 51°11.409 2°36.922 41.5 12.4 35 13.1
2006-02-22 08:49:28 51°11.42 2°36.935 40.8 12.4 37 13.3
2006-02-22 08:49:35 51°11.439 2°36.956 40.6 12.1 35 13.5
2006-02-22 08:49:40 51°11.453 2°36.971 40.7 12.1 36 13.2
2006-02-22 08:49:45 51°11.467 2°36.986 40.7 11.9 34 13
2006-02-22 08:49:50 51°11.481 2°37.002 40.6 12.1 34 13
2006-02-22 08:49:55 51°11.495 2°37.016 39.9 12.1 34 13.4
2006-02-22 08:49:59 51°11.506 2°37.028 40.1 12.1 34 13.4
2006-02-22 08:50:04 51°11.52 2°37.043 40.6 12.2 34 13.2
2006-02-22 08:50:09 51°11.534 2°37.059 40.3 12 34 13.5
2006-02-22 08:50:14 51°11.548 2°37.074 40.3 12.1 34 13.3
2006-02-22 08:50:20 51°11.564 2°37.091 40.5 12.1 35 13.7
2006-02-22 08:50:25 51°11.578 2°37.107 40.8 11.7 36 13.4
2006-02-22 08:50:30 51°11.592 2°37.122 41.1 12 34 13.4
2006-02-22 08:50:35 51°11.606 2°37.136 40.7 12 34 13.6
2006-02-22 08:50:40 51°11.62 2°37.151 39.9 12.3 33 13.8
2006-02-22 08:50:44 51°11.632 2°37.163 39.7 12 33 13.7
2006-02-22 08:50:50 51°11.649 2°37.18 39.4 12.2 33 13.9
2006-02-22 08:50:55 51°11.663 2°37.196 39.6 12.3 33 13.5
2006-02-22 08:51:00 51°11.677 2°37.211 39.9 12.3 33 13.5